METAR Data
IDs: Format: Raw Decoded Include TAF

Data at: 0029 UTC 19 Nov 2018

METAR for:PAAK (Atka Arpt, AK, US)
Text:PAAK 182356Z AUTO 27013G21KT 10SM FEW026 BKN034 OVC041 06/00 A3021 RMK AO2 SLP231 6//// T00560000 10056 20033 50004 PNO $
Temperature: 5.6°C ( 42°F)
Dewpoint: 0.0°C ( 32°F) [RH = 67%]
Pressure (altimeter):30.21 inches Hg (1023.1 mb) [Sea level pressure: 1023.1 mb]
Winds:from the W (270 degrees) at 15 MPH (13 knots; 6.7 m/s) gusting to 24 MPH (21 knots; 10.8 m/s)
Visibility:10 or more sm (16+ km)
Ceiling:3400 feet AGL
Clouds: few clouds at 2600 feet AGL, broken clouds at 3400 feet AGL, overcast cloud deck at 4100 feet AGL
QC Flag:automated observation with no human augmentation; SOME DATA ABOVE MAY BE INACCURATE!!!"$" is an indication the sensor requires maintenance.
Text:PAAK 182256Z AUTO 30014KT 10SM OVC039 04/01 A3021 RMK AO2 RAB12E31 SLP232 T00440011 PNO $
Temperature: 4.4°C ( 40°F)
Dewpoint: 1.1°C ( 34°F) [RH = 79%]
Pressure (altimeter):30.21 inches Hg (1023.1 mb) [Sea level pressure: 1023.2 mb]
Winds:from the WNW (300 degrees) at 16 MPH (14 knots; 7.2 m/s)
Visibility:10 or more sm (16+ km)
Ceiling:3900 feet AGL
Clouds: overcast cloud deck at 3900 feet AGL
QC Flag:automated observation with no human augmentation; SOME DATA ABOVE MAY BE INACCURATE!!!"$" is an indication the sensor requires maintenance.
Text:PAAK 182240Z AUTO 30014G23KT 10SM FEW019 SCT025 OVC039 04/01 A3021 RMK AO2 RAB12E31 PNO $
Temperature: 4.0°C ( 39°F)
Dewpoint: 1.0°C ( 34°F) [RH = 81%]
Pressure (altimeter):30.21 inches Hg (1023.1 mb)
Winds:from the WNW (300 degrees) at 16 MPH (14 knots; 7.2 m/s) gusting to 26 MPH (23 knots; 11.8 m/s)
Visibility:10 or more sm (16+ km)
Ceiling:3900 feet AGL
Clouds: few clouds at 1900 feet AGL, scattered clouds at 2500 feet AGL, overcast cloud deck at 3900 feet AGL
QC Flag:automated observation with no human augmentation; SOME DATA ABOVE MAY BE INACCURATE!!!"$" is an indication the sensor requires maintenance.
Text:PAAK 182215Z AUTO 28019G24KT 7SM -RA SCT019 BKN027 OVC043 04/01 A3021 RMK AO2 RAB12 PNO $
Temperature: 4.0°C ( 39°F)
Dewpoint: 1.0°C ( 34°F) [RH = 81%]
Pressure (altimeter):30.21 inches Hg (1023.1 mb)
Winds:from the W (280 degrees) at 22 MPH (19 knots; 9.8 m/s) gusting to 28 MPH (24 knots; 12.3 m/s)
Visibility: 7 sm ( 11 km)
Ceiling:2700 feet AGL
Clouds: scattered clouds at 1900 feet AGL, broken clouds at 2700 feet AGL, overcast cloud deck at 4300 feet AGL
Weather:-RA (light rain)
QC Flag:automated observation with no human augmentation; SOME DATA ABOVE MAY BE INACCURATE!!!"$" is an indication the sensor requires maintenance.
Text:PAAK 182156Z AUTO 29017G21KT 10SM BKN043 05/01 A3020 RMK AO2 SLP229 T00500011 PNO $
Temperature: 5.0°C ( 41°F)
Dewpoint: 1.1°C ( 34°F) [RH = 76%]
Pressure (altimeter):30.20 inches Hg (1022.8 mb) [Sea level pressure: 1022.9 mb]
Winds:from the WNW (290 degrees) at 20 MPH (17 knots; 8.7 m/s) gusting to 24 MPH (21 knots; 10.8 m/s)
Visibility:10 or more sm (16+ km)
Ceiling:4300 feet AGL
Clouds: broken clouds at 4300 feet AGL
QC Flag:automated observation with no human augmentation; SOME DATA ABOVE MAY BE INACCURATE!!!"$" is an indication the sensor requires maintenance.
Text:PAAK 182056Z AUTO 30018G22KT 10SM FEW029 BKN036 OVC043 05/M01 A3020 RMK AO2 PK WND 29026/2021 SLP227 6//// T00501011 51021 PNO $
Temperature: 5.0°C ( 41°F)
Dewpoint: -1.1°C ( 30°F) [RH = 65%]
Pressure (altimeter):30.20 inches Hg (1022.8 mb) [Sea level pressure: 1022.7 mb]
Winds:from the WNW (300 degrees) at 21 MPH (18 knots; 9.3 m/s) gusting to 25 MPH (22 knots; 11.3 m/s)
Visibility:10 or more sm (16+ km)
Ceiling:3600 feet AGL
Clouds: few clouds at 2900 feet AGL, broken clouds at 3600 feet AGL, overcast cloud deck at 4300 feet AGL
QC Flag:automated observation with no human augmentation; SOME DATA ABOVE MAY BE INACCURATE!!!"$" is an indication the sensor requires maintenance.
Text:PAAK 181956Z AUTO 29017G22KT 10SM FEW037 OVC043 04/M01 A3018 RMK AO2 PK WND 29027/1858 SLP221 T00391006 PNO $
Temperature: 3.9°C ( 39°F)
Dewpoint: -0.6°C ( 31°F) [RH = 72%]
Pressure (altimeter):30.18 inches Hg (1022.1 mb) [Sea level pressure: 1022.1 mb]
Winds:from the WNW (290 degrees) at 20 MPH (17 knots; 8.7 m/s) gusting to 25 MPH (22 knots; 11.3 m/s)
Visibility:10 or more sm (16+ km)
Ceiling:4300 feet AGL
Clouds: few clouds at 3700 feet AGL, overcast cloud deck at 4300 feet AGL
QC Flag:automated observation with no human augmentation; SOME DATA ABOVE MAY BE INACCURATE!!!"$" is an indication the sensor requires maintenance.
Text:PAAK 181903Z AUTO 30018G28KT 10SM FEW019 SCT026 OVC043 04/00 A3017 RMK AO2 PK WND 29027/1858 PNO $
Temperature: 4.0°C ( 39°F)
Dewpoint: 0.0°C ( 32°F) [RH = 75%]
Pressure (altimeter):30.17 inches Hg (1021.8 mb)
Winds:from the WNW (300 degrees) at 21 MPH (18 knots; 9.3 m/s) gusting to 32 MPH (28 knots; 14.4 m/s)
Visibility:10 or more sm (16+ km)
Ceiling:4300 feet AGL
Clouds: few clouds at 1900 feet AGL, scattered clouds at 2600 feet AGL, overcast cloud deck at 4300 feet AGL
QC Flag:automated observation with no human augmentation; SOME DATA ABOVE MAY BE INACCURATE!!!"$" is an indication the sensor requires maintenance.
Text:PAAK 181856Z AUTO 29024G30KT 10SM SCT019 BKN026 OVC041 04/00 A3017 RMK AO2 PK WND 29030/1850 RAB30E50 SLP217 T00390000 PNO $
Temperature: 3.9°C ( 39°F)
Dewpoint: 0.0°C ( 32°F) [RH = 76%]
Pressure (altimeter):30.17 inches Hg (1021.8 mb) [Sea level pressure: 1021.7 mb]
Winds:from the WNW (290 degrees) at 28 MPH (24 knots; 12.3 m/s) gusting to 34 MPH (30 knots; 15.4 m/s)
Visibility:10 or more sm (16+ km)
Ceiling:2600 feet AGL
Clouds: scattered clouds at 1900 feet AGL, broken clouds at 2600 feet AGL, overcast cloud deck at 4100 feet AGL
QC Flag:automated observation with no human augmentation; SOME DATA ABOVE MAY BE INACCURATE!!!"$" is an indication the sensor requires maintenance.

TAF for:PAAK (Atka Arpt, AK, US)
Text:No data found